Time;durP1;ratioP1;P1;durP2;ratioP2;P2;SDS_P1;SDS_P2;PMS_P1;PMS_P2;Temp;Humidity;BMP_temperature;BMP_pressure;BME280_temperature;BME280_humidity;BME280_pressure;Samples;Min_cycle;Max_cycle;Signal;HPM_P1;HPM_P2
2024/03/05 00:00:35;;;;;;;44.60;25.03;;;;;;;7.68;100.00;100709.28;6014764;23;20179;-71
2024/03/05 00:03:01;;;;;;;40.80;23.63;;;;;;;7.66;100.00;100704.31;6014588;23;20202;-72
2024/03/05 00:05:29;;;;;;;44.60;24.73;;;;;;;7.66;100.00;100706.19;6005049;23;20638;-71
2024/03/05 00:07:57;;;;;;;40.50;22.93;;;;;;;7.64;100.00;100708.34;6014778;23;20182;-71
2024/03/05 00:10:23;;;;;;;52.60;30.00;;;;;;;7.63;100.00;100706.78;6015042;23;20177;-71
2024/03/05 00:12:49;;;;;;;45.73;24.73;;;;;;;7.59;100.00;100709.25;6014673;23;20186;-71
2024/03/05 00:15:16;;;;;;;42.33;22.30;;;;;;;7.60;100.00;100717.91;6014242;23;20624;-71
2024/03/05 00:17:43;;;;;;;54.40;30.03;;;;;;;7.58;100.00;100717.44;6014508;23;20175;-71
2024/03/05 00:20:17;;;;;;;43.10;25.40;;;;;;;7.57;100.00;100713.25;6014342;23;20178;-71
2024/03/05 00:22:44;;;;;;;41.10;24.50;;;;;;;7.54;100.00;100711.22;6014782;23;20192;-71
2024/03/05 00:25:12;;;;;;;60.53;34.83;;;;;;;7.52;100.00;100710.75;6014699;23;20197;-71
2024/03/05 00:27:38;;;;;;;54.90;30.67;;;;;;;7.51;100.00;100714.47;6015326;23;20182;-71
2024/03/05 00:30:08;;;;;;;49.80;27.33;;;;;;;7.49;100.00;100709.50;6015264;23;20175;-72
2024/03/05 00:32:35;;;;;;;46.50;27.13;;;;;;;7.49;100.00;100703.47;6014806;23;20171;-71
2024/03/05 00:35:01;;;;;;;44.20;24.63;;;;;;;7.46;100.00;100712.72;6014106;23;20485;-71
2024/03/05 00:37:28;;;;;;;44.27;27.57;;;;;;;7.46;100.00;100711.97;6014338;23;20174;-71
2024/03/05 00:39:54;;;;;;;39.47;23.20;;;;;;;7.45;100.00;100711.19;6014831;23;20181;-71
2024/03/05 00:42:21;;;;;;;40.20;21.97;;;;;;;7.44;100.00;100714.09;6014475;23;20174;-71
2024/03/05 00:44:48;;;;;;;36.40;21.27;;;;;;;7.43;100.00;100717.81;6013659;23;20192;-71
2024/03/05 00:47:14;;;;;;;35.77;21.03;;;;;;;7.40;100.00;100718.44;6014289;23;20178;-71
2024/03/05 00:49:41;;;;;;;36.07;21.20;;;;;;;7.39;100.00;100722.09;6014101;23;20183;-72
2024/03/05 00:52:07;;;;;;;36.10;20.77;;;;;;;7.36;100.00;100726.09;6013208;23;20174;-71
2024/03/05 00:54:34;;;;;;;41.87;21.30;;;;;;;7.35;100.00;100716.69;6012892;23;20667;-71
2024/03/05 00:57:00;;;;;;;37.87;20.30;;;;;;;7.32;100.00;100717.31;6014109;23;20166;-71
2024/03/05 00:59:28;;;;;;;37.50;21.07;;;;;;;7.31;100.00;100728.09;6013358;23;20166;-71
2024/03/05 01:01:55;;;;;;;39.20;21.43;;;;;;;7.28;100.00;100718.19;6014060;23;20180;-71
2024/03/05 01:04:22;;;;;;;43.27;22.23;;;;;;;7.25;100.00;100724.06;6013019;23;20191;-71
2024/03/05 01:06:48;;;;;;;38.97;21.67;;;;;;;7.20;100.00;100727.56;6014420;23;21105;-71
2024/03/05 01:09:18;;;;;;;38.60;20.57;;;;;;;7.17;100.00;100724.75;6014069;23;20175;-71
2024/03/05 01:11:44;;;;;;;38.17;20.53;;;;;;;7.13;100.00;100721.97;6015295;23;20196;-71
2024/03/05 01:14:14;;;;;;;42.93;22.03;;;;;;;7.10;100.00;100722.53;5980737;23;20209;-71
2024/03/05 01:16:42;;;;;;;41.20;21.63;;;;;;;7.08;100.00;100726.53;6013892;23;20165;-71
2024/03/05 01:19:08;;;;;;;45.10;23.73;;;;;;;7.04;100.00;100728.22;6014401;23;20174;-71
2024/03/05 01:21:35;;;;;;;41.43;21.37;;;;;;;6.98;100.00;100722.31;6015057;23;20169;-71
2024/03/05 01:24:01;;;;;;;40.70;22.17;;;;;;;6.95;100.00;100717.63;6016034;23;20577;-72
2024/03/05 01:26:28;;;;;;;38.47;21.57;;;;;;;6.91;100.00;100727.19;6014840;23;20195;-71
2024/03/05 01:28:57;;;;;;;40.57;22.13;;;;;;;6.86;100.00;100722.06;6016738;23;20330;-71
2024/03/05 01:31:23;;;;;;;39.30;23.00;;;;;;;6.83;100.00;100719.25;6016553;23;20177;-71
2024/03/05 01:33:51;;;;;;;42.87;22.33;;;;;;;6.77;100.00;100718.59;6016595;23;20215;-71
2024/03/05 01:36:19;;;;;;;39.17;21.93;;;;;;;6.74;100.00;100718.41;6016744;23;20194;-71
2024/03/05 01:38:46;;;;;;;40.00;21.93;;;;;;;6.70;100.00;100715.59;6016857;23;20171;-71
2024/03/05 01:41:13;;;;;;;38.80;21.00;;;;;;;6.66;100.00;100719.88;6016957;23;20769;-72
2024/03/05 01:43:40;;;;;;;43.63;23.37;;;;;;;6.63;100.00;100723.09;6015601;23;20667;-71
2024/03/05 01:46:08;;;;;;;41.83;23.10;;;;;;;6.61;100.00;100727.88;6015030;23;20194;-71
2024/03/05 01:48:34;;;;;;;44.73;22.33;;;;;;;6.57;100.00;100732.16;6016209;23;20169;-71
2024/03/05 01:51:02;;;;;;;42.63;22.00;;;;;;;6.54;100.00;100729.34;6016651;23;20179;-71
2024/03/05 01:53:29;;;;;;;41.03;23.43;;;;;;;6.52;100.00;100739.34;6016357;23;20282;-71
2024/03/05 01:55:56;;;;;;;45.23;24.00;;;;;;;6.48;100.00;100731.28;5982230;23;20169;-71
2024/03/05 01:58:23;;;;;;;44.77;22.13;;;;;;;6.45;100.00;100734.50;6016397;23;20615;-71
2024/03/05 02:00:49;;;;;;;47.57;23.30;;;;;;;6.43;100.00;100744.50;6016786;23;20183;-71
2024/03/05 02:03:17;;;;;;;42.70;22.07;;;;;;;6.41;100.00;100738.78;6016110;23;20197;-71
2024/03/05 02:05:46;;;;;;;45.23;22.03;;;;;;;6.39;100.00;100738.31;5981487;23;20602;-71
2024/03/05 02:08:14;;;;;;;43.00;22.37;;;;;;;6.38;100.00;100735.97;6015730;23;20220;-71
2024/03/05 02:10:40;;;;;;;41.47;21.60;;;;;;;6.36;100.00;100741.50;6015931;23;20182;-71
2024/03/05 02:13:09;;;;;;;44.07;23.37;;;;;;;6.34;100.00;100751.53;6016403;23;20196;-71
2024/03/05 02:15:35;;;;;;;37.70;21.97;;;;;;;6.33;100.00;100738.69;6016539;23;20168;-71
2024/03/05 02:18:02;;;;;;;42.13;23.00;;;;;;;6.32;100.00;100747.63;6015947;23;20202;-71
2024/03/05 02:20:28;;;;;;;49.60;22.87;;;;;;;6.29;100.00;100740.34;6007109;23;20645;-71
2024/03/05 02:22:56;;;;;;;38.83;21.13;;;;;;;6.26;100.00;100746.94;6015926;23;20634;-71
2024/03/05 02:25:23;;;;;;;41.37;21.87;;;;;;;6.22;100.00;100745.97;6015260;23;20180;-71
2024/03/05 02:27:50;;;;;;;49.07;23.63;;;;;;;6.18;100.00;100757.34;6016261;23;20172;-71
2024/03/05 02:30:17;;;;;;;42.27;23.50;;;;;;;6.13;100.00;100757.44;6016133;23;20168;-71
2024/03/05 02:32:44;;;;;;;41.70;21.77;;;;;;;6.09;100.00;100759.09;6016467;23;20184;-71
2024/03/05 02:35:11;;;;;;;42.83;23.00;;;;;;;6.05;100.00;100752.88;6016038;23;20168;-71
2024/03/05 02:37:38;;;;;;;44.63;22.70;;;;;;;6.03;100.00;100752.38;6016042;23;20228;-71
2024/03/05 02:40:09;;;;;;;48.83;22.63;;;;;;;6.00;100.00;100750.38;5981770;23;20180;-71
2024/03/05 02:42:35;;;;;;;44.17;23.33;;;;;;;5.97;100.00;100751.72;6016518;23;20405;-71
2024/03/05 02:45:04;;;;;;;44.83;23.27;;;;;;;5.93;100.00;100760.44;6014625;23;20187;-71
2024/03/05 02:47:31;;;;;;;41.20;22.53;;;;;;;5.88;100.00;100752.66;6014591;23;20239;-71
2024/03/05 02:49:57;;;;;;;41.63;22.00;;;;;;;5.83;100.00;100752.75;6015713;23;20706;-71
2024/03/05 02:52:24;;;;;;;44.87;23.17;;;;;;;5.78;100.00;100752.81;6016500;23;20176;-71
2024/03/05 02:54:51;;;;;;;45.43;25.00;;;;;;;5.72;100.00;100753.97;6015958;23;20596;-71
2024/03/05 02:57:18;;;;;;;44.00;24.23;;;;;;;5.66;100.00;100755.13;6015434;23;20217;-71
2024/03/05 02:59:45;;;;;;;45.77;24.33;;;;;;;5.59;100.00;100762.59;6015963;23;20770;-71
2024/03/05 03:02:11;;;;;;;47.90;24.67;;;;;;;5.53;100.00;100764.50;6016118;23;20168;-71
2024/03/05 03:04:39;;;;;;;44.37;23.70;;;;;;;5.47;100.00;100763.03;6015954;23;20214;-71
2024/03/05 03:07:06;;;;;;;41.93;22.90;;;;;;;5.41;100.00;100766.81;6015705;23;20216;-71
2024/03/05 03:09:32;;;;;;;49.40;24.43;;;;;;;5.34;100.00;100763.75;6016775;23;20168;-71
2024/03/05 03:11:58;;;;;;;45.90;23.77;;;;;;;5.27;100.00;100760.72;6015844;23;20165;-71
2024/03/05 03:14:28;;;;;;;46.60;24.47;;;;;;;5.23;100.00;100770.22;6015665;23;20275;-71
2024/03/05 03:16:54;;;;;;;47.60;24.13;;;;;;;5.18;100.00;100766.91;6015889;23;20201;-71
2024/03/05 03:19:21;;;;;;;45.90;25.03;;;;;;;5.13;100.00;100767.75;6016668;23;20192;-71
2024/03/05 03:21:48;;;;;;;48.70;24.83;;;;;;;5.08;100.00;100769.69;6016771;23;20275;-71
2024/03/05 03:24:14;;;;;;;52.37;24.87;;;;;;;5.05;100.00;100762.38;6016295;23;20202;-71
2024/03/05 03:26:40;;;;;;;50.43;24.67;;;;;;;5.00;100.00;100773.72;6016520;23;20275;-71
2024/03/05 03:29:11;;;;;;;45.00;24.00;;;;;;;4.95;100.00;100765.94;6016377;23;20176;-71
2024/03/05 03:31:38;;;;;;;54.20;24.93;;;;;;;4.90;100.00;100766.00;6016319;23;20179;-71
2024/03/05 03:34:06;;;;;;;43.20;23.77;;;;;;;4.87;100.00;100756.09;6016500;23;20192;-71
2024/03/05 03:36:33;;;;;;;49.23;24.53;;;;;;;4.80;100.00;100755.69;6016077;23;20164;-71
2024/03/05 03:38:59;;;;;;;44.57;24.10;;;;;;;4.75;100.00;100753.13;6016591;23;20238;-71
2024/03/05 03:41:25;;;;;;;42.13;23.37;;;;;;;4.72;100.00;100755.53;6016658;23;20187;-71
2024/03/05 03:43:52;;;;;;;51.07;23.80;;;;;;;4.66;100.00;100756.66;6016064;23;20673;-71
2024/03/05 03:46:18;;;;;;;49.43;25.27;;;;;;;4.63;100.00;100765.06;6016100;23;20184;-71
2024/03/05 03:48:46;;;;;;;48.00;24.40;;;;;;;4.58;100.00;100765.13;6016623;23;20180;-71
2024/03/05 03:51:13;;;;;;;48.03;24.40;;;;;;;4.54;100.00;100772.75;6016689;23;20248;-70
2024/03/05 03:53:42;;;;;;;46.77;24.23;;;;;;;4.51;100.00;100777.78;6016542;23;20193;-71
2024/03/05 03:56:09;;;;;;;47.30;24.47;;;;;;;4.47;100.00;100792.47;6016095;23;20532;-71
2024/03/05 03:58:35;;;;;;;49.50;24.13;;;;;;;4.44;100.00;100793.00;5982064;23;20201;-71
2024/03/05 04:01:02;;;;;;;49.73;24.77;;;;;;;4.41;100.00;100791.72;6016700;23;20256;-71
2024/03/05 04:03:29;;;;;;;48.10;24.30;;;;;;;4.40;100.00;100797.25;5982140;23;20199;-71
2024/03/05 04:05:57;;;;;;;47.07;24.23;;;;;;;4.38;100.00;100794.13;6016723;23;20528;-71
2024/03/05 04:08:23;;;;;;;54.43;24.83;;;;;;;4.37;100.00;100797.81;6016397;23;20508;-71
2024/03/05 04:10:49;;;;;;;58.90;26.70;;;;;;;4.37;100.00;100806.44;6016578;23;20170;-71
2024/03/05 04:13:18;;;;;;;53.60;27.63;;;;;;;4.37;100.00;100798.59;6016112;23;20190;-70
2024/03/05 04:15:44;;;;;;;52.97;28.00;;;;;;;4.39;100.00;100803.53;6016284;23;20179;-71
2024/03/05 04:18:10;;;;;;;56.00;27.70;;;;;;;4.41;100.00;100804.03;6015634;23;20572;-71
2024/03/05 04:20:37;;;;;;;51.60;26.83;;;;;;;4.42;100.00;100798.53;6016485;23;20172;-71
2024/03/05 04:23:04;;;;;;;50.73;26.67;;;;;;;4.44;100.00;100803.47;6015878;23;20187;-71
2024/03/05 04:25:39;;;;;;;56.47;27.27;;;;;;;4.45;100.00;100805.81;6015849;23;20275;-71
2024/03/05 04:28:10;;;;;;;52.60;26.57;;;;;;;4.46;100.00;100804.75;6015782;23;20250;-71
2024/03/05 04:30:37;;;;;;;50.63;26.57;;;;;;;4.48;100.00;100801.84;6016665;23;20176;-71
2024/03/05 04:33:05;;;;;;;55.33;27.50;;;;;;;4.50;100.00;100810.22;6016081;23;20222;-71
2024/03/05 04:35:32;;;;;;;54.27;27.33;;;;;;;4.51;100.00;100812.53;6015629;23;20172;-71
2024/03/05 04:37:58;;;;;;;53.73;26.47;;;;;;;4.54;100.00;100811.19;6016147;23;20823;-71
2024/03/05 04:40:26;;;;;;;53.23;26.63;;;;;;;4.57;100.00;100821.09;6015560;23;20651;-71
2024/03/05 04:42:52;;;;;;;50.83;26.57;;;;;;;4.59;100.00;100822.38;6015831;23;20192;-71
2024/03/05 04:45:19;;;;;;;49.53;26.27;;;;;;;4.62;100.00;100823.66;6014735;23;20175;-71
2024/03/05 04:47:45;;;;;;;51.80;27.03;;;;;;;4.64;100.00;100829.38;6015610;23;20187;-71
2024/03/05 04:50:14;;;;;;;42.70;25.03;;;;;;;4.65;100.00;100829.09;5980582;23;20213;-71
2024/03/05 04:52:40;;;;;;;50.63;25.03;;;;;;;4.67;100.00;100834.06;6015493;23;20183;-71
2024/03/05 04:55:08;;;;;;;49.87;25.50;;;;;;;4.69;100.00;100826.69;6015414;23;20173;-71
2024/03/05 04:57:35;;;;;;;49.73;25.53;;;;;;;4.70;100.00;100825.63;6014407;23;20172;-71
2024/03/05 05:00:02;;;;;;;49.23;26.50;;;;;;;4.71;100.00;100827.22;6015242;23;20237;-71
2024/03/05 05:02:28;;;;;;;47.70;25.57;;;;;;;4.73;100.00;100828.50;6014778;23;20172;-71
2024/03/05 05:04:54;;;;;;;47.47;25.97;;;;;;;4.74;100.00;100831.88;6015379;23;20180;-71
2024/03/05 05:07:23;;;;;;;48.07;25.43;;;;;;;4.76;100.00;100840.25;6015247;23;20192;-71
2024/03/05 05:09:49;;;;;;;45.53;24.67;;;;;;;4.76;100.00;100827.91;6015892;23;20686;-71
2024/03/05 05:12:17;;;;;;;49.03;25.57;;;;;;;4.76;100.00;100830.53;6015164;23;20251;-71
2024/03/05 05:14:45;;;;;;;43.10;23.17;;;;;;;4.76;100.00;100822.69;6014358;23;20195;-71
2024/03/05 05:17:13;;;;;;;41.90;23.33;;;;;;;4.74;100.00;100818.78;6015214;23;20929;-71
2024/03/05 05:19:40;;;;;;;45.60;24.67;;;;;;;4.72;100.00;100826.16;6014512;23;20178;-71
2024/03/05 05:22:07;;;;;;;43.43;22.27;;;;;;;4.69;100.00;100824.88;6015071;23;20269;-71
2024/03/05 05:24:34;;;;;;;43.23;22.53;;;;;;;4.65;100.00;100842.19;6015025;23;20198;-71
2024/03/05 05:27:01;;;;;;;43.23;23.00;;;;;;;4.59;100.00;100835.47;6014616;23;20274;-71
2024/03/05 05:29:27;;;;;;;43.33;23.50;;;;;;;4.57;100.00;100836.78;5978970;23;20172;-71
2024/03/05 05:31:55;;;;;;;40.00;22.07;;;;;;;4.52;100.00;100839.47;6015494;23;20175;-71
2024/03/05 05:34:21;;;;;;;38.93;21.83;;;;;;;4.47;100.00;100834.28;6014823;23;20273;-71
2024/03/05 05:36:47;;;;;;;43.77;22.67;;;;;;;4.42;100.00;100834.34;6016018;23;20165;-71
2024/03/05 05:39:13;;;;;;;38.13;21.83;;;;;;;4.35;100.00;100847.75;6015930;23;20639;-71
2024/03/05 05:41:39;;;;;;;45.13;22.37;;;;;;;4.28;100.00;100843.91;6015307;23;20170;-71
2024/03/05 05:44:05;;;;;;;40.63;21.50;;;;;;;4.21;100.00;100852.09;6014857;23;20278;-71
2024/03/05 05:46:33;;;;;;;40.50;22.17;;;;;;;4.16;100.00;100852.13;6015176;23;20185;-71
2024/03/05 05:49:05;;;;;;;39.87;20.70;;;;;;;4.09;100.00;100846.44;6015553;23;20170;-71
2024/03/05 05:51:31;;;;;;;44.27;20.87;;;;;;;4.02;100.00;100859.06;6015788;23;20625;-71
2024/03/05 05:53:58;;;;;;;38.43;20.60;;;;;;;3.95;100.00;100857.81;6015118;23;20188;-71
2024/03/05 05:56:25;;;;;;;40.07;21.40;;;;;;;3.89;100.00;100864.13;6015929;23;20170;-71
2024/03/05 05:58:54;;;;;;;43.77;22.87;;;;;;;3.83;100.00;100865.22;6015777;23;20172;-71
2024/03/05 06:01:22;;;;;;;40.23;21.00;;;;;;;3.78;100.00;100860.81;6015358;23;20487;-71
2024/03/05 06:03:49;;;;;;;42.37;21.93;;;;;;;3.74;100.00;100865.00;6014212;23;20271;-71
2024/03/05 06:06:19;;;;;;;44.57;24.33;;;;;;;3.69;100.00;100865.06;6015813;23;20186;-71
2024/03/05 06:08:46;;;;;;;44.70;23.40;;;;;;;3.65;100.00;100869.28;6015637;23;20229;-71
2024/03/05 06:11:12;;;;;;;41.37;22.03;;;;;;;3.61;100.00;100862.25;6017843;23;20236;-71
2024/03/05 06:13:39;;;;;;;41.20;21.37;;;;;;;3.57;100.00;100863.88;6017756;23;20190;-70
2024/03/05 06:16:07;;;;;;;39.27;21.03;;;;;;;3.53;100.00;100865.44;6017869;23;20255;-70
2024/03/05 06:18:35;;;;;;;49.73;22.93;;;;;;;3.49;100.00;100862.63;6018141;23;20220;-70
2024/03/05 06:21:02;;;;;;;40.20;21.97;;;;;;;3.47;100.00;100866.53;6018084;23;20216;-71
2024/03/05 06:23:30;;;;;;;44.97;21.53;;;;;;;3.43;100.00;100862.91;6017316;23;20252;-71
2024/03/05 06:25:56;;;;;;;42.63;21.80;;;;;;;3.40;100.00;100859.00;6018043;23;20195;-71
2024/03/05 06:28:23;;;;;;;41.17;22.20;;;;;;;3.38;100.00;100862.94;6017842;23;20271;-71
2024/03/05 06:30:49;;;;;;;47.13;23.77;;;;;;;3.36;100.00;100863.19;6016810;23;20172;-71
2024/03/05 06:33:17;;;;;;;47.00;23.07;;;;;;;3.36;100.00;100867.63;6017684;23;20231;-71
2024/03/05 06:35:44;;;;;;;43.03;22.23;;;;;;;3.36;100.00;100875.47;6017074;23;20224;-71
2024/03/05 06:38:11;;;;;;;45.40;23.07;;;;;;;3.36;100.00;100870.25;6017851;23;20247;-71
2024/03/05 06:40:38;;;;;;;40.00;22.80;;;;;;;3.36;100.00;100871.03;6017871;23;20170;-71
2024/03/05 06:43:12;;;;;;;44.07;23.80;;;;;;;3.37;100.00;100877.81;6017324;23;20274;-71
2024/03/05 06:45:42;;;;;;;46.57;24.87;;;;;;;3.37;100.00;100880.41;6016791;23;20774;-71
2024/03/05 06:48:12;;;;;;;47.37;23.83;;;;;;;3.39;100.00;100869.72;6016737;23;20188;-70
2024/03/05 06:50:41;;;;;;;41.80;22.27;;;;;;;3.43;100.00;100878.56;6016493;23;20256;-71
2024/03/05 06:58:39;;;;;;;45.83;24.37;;;;;;;3.49;100.00;100886.09;6017738;23;20308;-71
2024/03/05 07:01:07;;;;;;;40.73;23.70;;;;;;;3.52;100.00;100887.41;6016861;23;20169;-71
2024/03/05 07:03:34;;;;;;;41.90;23.87;;;;;;;3.54;100.00;100883.47;6014486;23;20188;-71
2024/03/05 07:06:06;;;;;;;46.03;24.70;;;;;;;3.58;100.00;100891.53;6015744;23;20630;-71
2024/03/05 07:08:33;;;;;;;49.47;24.80;;;;;;;3.61;100.00;100889.16;6015662;23;20191;-71
2024/03/05 07:11:01;;;;;;;56.37;27.73;;;;;;;3.65;100.00;100890.19;6015795;23;20176;-71
2024/03/05 07:13:28;;;;;;;48.60;24.60;;;;;;;3.70;100.00;100890.13;6007357;23;20279;-71
2024/03/05 07:15:56;;;;;;;47.73;24.33;;;;;;;3.75;100.00;100897.94;6016809;23;20176;-71
2024/03/05 07:18:23;;;;;;;42.23;24.03;;;;;;;3.78;100.00;100900.00;6016946;23;20174;-71
2024/03/05 07:20:49;;;;;;;43.07;23.53;;;;;;;3.85;100.00;100900.47;6016042;23;20507;-71
2024/03/05 07:23:16;;;;;;;42.00;22.00;;;;;;;3.88;100.00;100897.31;6015966;23;20607;-71
2024/03/05 07:25:43;;;;;;;44.30;22.33;;;;;;;3.94;100.00;100895.44;6016782;23;20173;-71
2024/03/05 07:28:11;;;;;;;42.23;22.70;;;;;;;3.97;100.00;100893.06;6006658;23;20523;-71
2024/03/05 07:30:37;;;;;;;41.57;21.60;;;;;;;4.02;100.00;100884.38;6016628;23;20616;-71
2024/03/05 07:33:04;;;;;;;35.80;20.23;;;;;;;4.06;100.00;100895.84;5982764;23;20247;-71
2024/03/05 07:35:31;;;;;;;40.13;19.97;;;;;;;4.09;100.00;100897.94;6017305;23;20178;-71
2024/03/05 07:37:57;;;;;;;37.20;19.70;;;;;;;4.12;100.00;100908.63;6017440;23;20174;-71
2024/03/05 07:40:23;;;;;;;35.93;20.07;;;;;;;4.16;100.00;100904.41;6017630;23;20175;-71
2024/03/05 07:42:51;;;;;;;37.50;19.47;;;;;;;4.21;100.00;100899.13;6017576;23;20526;-71
2024/03/05 07:45:23;;;;;;;36.53;18.87;;;;;;;4.24;100.00;100901.19;6017193;23;20188;-71
2024/03/05 07:47:51;;;;;;;34.17;18.27;;;;;;;4.28;100.00;100899.56;6017171;23;20194;-71
2024/03/05 07:50:17;;;;;;;27.93;17.33;;;;;;;4.31;100.00;100904.25;6016904;23;20186;-71
2024/03/05 07:52:46;;;;;;;29.77;17.27;;;;;;;4.34;100.00;100903.69;6017257;23;20178;-71
2024/03/05 07:55:14;;;;;;;32.27;16.67;;;;;;;4.38;100.00;100909.16;6017541;23;20248;-71
2024/03/05 07:57:41;;;;;;;27.43;16.67;;;;;;;4.40;100.00;100909.66;6017194;23;20174;-71
2024/03/05 08:00:11;;;;;;;27.07;16.57;;;;;;;4.44;100.00;100908.84;6017295;23;20251;-71
2024/03/05 08:02:41;;;;;;;27.67;16.17;;;;;;;4.46;100.00;100901.47;6017232;23;20193;-71
2024/03/05 08:05:07;;;;;;;27.63;16.40;;;;;;;4.50;100.00;100909.56;6017182;23;20195;-71
2024/03/05 08:07:35;;;;;;;29.43;16.60;;;;;;;4.53;100.00;100909.00;6017091;23;20193;-71
2024/03/05 08:10:05;;;;;;;32.10;16.93;;;;;;;4.56;100.00;100898.75;6016789;23;20198;-71
2024/03/05 08:12:31;;;;;;;32.50;15.70;;;;;;;4.61;100.00;100897.94;6017208;23;20349;-71
2024/03/05 08:14:58;;;;;;;25.63;15.53;;;;;;;4.66;100.00;100900.50;6016684;23;20168;-71
2024/03/05 08:17:24;;;;;;;32.00;15.67;;;;;;;4.69;100.00;100894.72;6017052;23;20172;-71
2024/03/05 08:19:52;;;;;;;29.83;16.30;;;;;;;4.74;100.00;100905.91;6016848;23;20195;-71
2024/03/05 08:22:20;;;;;;;32.53;15.60;;;;;;;4.80;100.00;100906.63;6017209;23;20168;-71
2024/03/05 08:24:46;;;;;;;28.77;16.23;;;;;;;4.82;100.00;100904.50;6016839;23;20522;-71
2024/03/05 08:27:13;;;;;;;28.50;17.07;;;;;;;4.86;100.00;100915.97;6017062;23;20196;-71
2024/03/05 08:29:42;;;;;;;28.53;16.40;;;;;;;4.89;100.00;100918.81;6017080;23;20172;-71
2024/03/05 08:32:09;;;;;;;27.50;15.27;;;;;;;4.94;100.00;100923.22;6017246;23;20168;-71
2024/03/05 08:34:36;;;;;;;32.57;17.10;;;;;;;4.97;100.00;100915.56;6016353;23;20203;-71
2024/03/05 08:37:04;;;;;;;26.70;14.10;;;;;;;5.03;100.00;100909.22;6016794;23;20196;-71
2024/03/05 08:39:33;;;;;;;24.47;15.03;;;;;;;5.07;100.00;100914.69;6016650;23;20196;-71
2024/03/05 08:42:00;;;;;;;27.97;15.60;;;;;;;5.12;100.00;100927.72;6017074;23;20480;-71
2024/03/05 08:44:26;;;;;;;27.00;15.10;;;;;;;5.17;100.00;100911.91;6015493;23;20208;-71
2024/03/05 08:46:53;;;;;;;26.67;15.27;;;;;;;5.22;100.00;100919.72;6016659;23;20174;-71
2024/03/05 08:49:19;;;;;;;32.70;15.87;;;;;;;5.25;100.00;100919.16;6015313;23;20192;-71
2024/03/05 08:51:45;;;;;;;26.70;15.00;;;;;;;5.30;100.00;100917.25;6016655;23;20259;-71
2024/03/05 08:54:13;;;;;;;23.20;14.97;;;;;;;5.37;100.00;100916.91;6016394;23;20199;-71
2024/03/05 08:56:40;;;;;;;30.87;17.27;;;;;;;5.43;100.00;100915.75;6016477;23;20168;-71
2024/03/05 08:59:06;;;;;;;28.60;15.27;;;;;;;5.48;100.00;100926.16;6016675;23;20483;-71
2024/03/05 09:01:36;;;;;;;24.63;14.33;;;;;;;5.55;100.00;100918.75;6016677;23;20164;-71
2024/03/05 09:04:06;;;;;;;25.40;14.27;;;;;;;5.61;100.00;100915.00;6015582;23;20296;-71
2024/03/05 09:06:32;;;;;;;25.73;14.40;;;;;;;5.65;100.00;100919.38;6016035;23;20172;-71
2024/03/05 09:08:59;;;;;;;24.63;14.13;;;;;;;5.70;100.00;100914.06;6015860;23;20569;-71
2024/03/05 09:11:27;;;;;;;26.87;14.17;;;;;;;5.77;100.00;100922.34;6016373;23;20175;-71
2024/03/05 09:13:54;;;;;;;25.27;14.50;;;;;;;5.78;100.00;100921.28;6016130;23;20200;-71
2024/03/05 09:16:20;;;;;;;22.30;14.07;;;;;;;5.82;100.00;100919.69;6016411;23;20251;-71
2024/03/05 09:18:46;;;;;;;33.17;17.53;;;;;;;5.86;100.00;100917.28;6015802;23;20172;-72
2024/03/05 09:21:14;;;;;;;21.53;12.47;;;;;;;5.88;100.00;100923.78;6016222;23;20174;-71
2024/03/05 09:23:40;;;;;;;20.43;11.90;;;;;;;5.92;100.00;100916.91;6016053;23;20534;-71
2024/03/05 09:26:07;;;;;;;24.43;13.17;;;;;;;5.99;100.00;100929.63;6016474;23;20183;-71
2024/03/05 09:28:35;;;;;;;24.20;13.57;;;;;;;6.05;100.00;100925.88;6015912;23;20227;-71
2024/03/05 09:31:01;;;;;;;23.97;13.93;;;;;;;6.11;100.00;100928.13;6015410;23;20168;-71
2024/03/05 09:33:29;;;;;;;27.50;13.63;;;;;;;6.17;100.00;100934.84;6015709;23;20270;-71
2024/03/05 09:35:55;;;;;;;21.60;12.87;;;;;;;6.20;100.00;100934.28;6015900;23;20620;-71
2024/03/05 09:38:22;;;;;;;18.87;11.53;;;;;;;6.23;100.00;100925.84;6015346;23;20168;-71
2024/03/05 09:40:50;;;;;;;31.17;14.30;;;;;;;6.30;100.00;100933.31;6015646;23;20165;-71
2024/03/05 09:43:21;;;;;;;20.90;12.23;;;;;;;6.36;100.00;100934.78;6015716;23;20196;-71
2024/03/05 09:45:51;;;;;;;17.13;11.30;;;;;;;6.41;100.00;100932.06;6017330;23;20179;-71
2024/03/05 09:48:19;;;;;;;24.17;12.30;;;;;;;6.48;100.00;100935.13;6017071;23;20188;-71
2024/03/05 09:50:48;;;;;;;18.57;11.37;;;;;;;6.54;100.00;100940.00;6017266;23;20172;-71
2024/03/05 09:53:15;;;;;;;18.47;10.37;;;;;;;6.58;100.00;100938.31;6017541;23;20196;-71
2024/03/05 09:55:41;;;;;;;25.37;13.40;;;;;;;6.63;100.00;100932.22;6017508;23;20172;-71
2024/03/05 09:58:10;;;;;;;18.97;12.07;;;;;;;6.66;100.00;100936.88;6017467;23;20191;-71
2024/03/05 10:00:38;;;;;;;17.03;11.53;;;;;;;6.71;100.00;100926.28;6017933;23;20175;-71
2024/03/05 10:03:06;;;;;;;19.67;11.23;;;;;;;6.76;100.00;100936.69;6017437;23;20185;-71
2024/03/05 10:05:33;;;;;;;27.20;14.30;;;;;;;6.82;100.00;100931.06;6016777;23;20178;-71
2024/03/05 10:07:59;;;;;;;20.47;11.47;;;;;;;6.85;100.00;100940.22;6017700;23;20188;-71
2024/03/05 10:10:31;;;;;;;19.10;11.67;;;;;;;6.89;100.00;100939.31;6017041;23;20202;-71
2024/03/05 10:12:58;;;;;;;27.87;13.03;;;;;;;6.93;100.00;100937.69;6017091;23;20198;-71
2024/03/05 10:15:25;;;;;;;17.57;11.93;;;;;;;6.98;100.00;100949.91;6016537;23;20168;-71
2024/03/05 10:17:53;;;;;;;18.37;11.27;;;;;;;7.03;100.00;100941.94;6016555;23;20177;-71
2024/03/05 10:20:28;;;;;;;18.40;12.13;;;;;;;7.06;100.00;100949.25;6016529;23;20189;-71
2024/03/05 10:22:55;;;;;;;21.20;11.40;;;;;;;7.10;100.00;100947.59;6016687;23;20193;-71
2024/03/05 10:25:23;;;;;;;20.47;11.17;;;;;;;7.15;100.00;100943.00;6016434;23;20192;-71
2024/03/05 10:27:50;;;;;;;21.33;12.93;;;;;;;7.20;100.00;100934.25;6016743;23;20173;-71
2024/03/05 10:30:24;;;;;;;17.40;10.80;;;;;;;7.26;100.00;100952.22;6016810;23;20519;-71
2024/03/05 10:32:55;;;;;;;20.03;11.37;;;;;;;7.30;100.00;100945.31;6016209;23;20196;-71
2024/03/05 10:35:22;;;;;;;19.70;11.07;;;;;;;7.35;100.00;100949.72;6016400;23;20271;-71
2024/03/05 10:38:00;;;;;;;19.23;12.63;;;;;;;7.40;100.00;100941.72;6016239;23;20182;-71
2024/03/05 10:40:31;;;;;;;19.33;11.33;;;;;;;7.45;100.00;100947.63;6016508;23;20173;-71
2024/03/05 10:43:00;;;;;;;20.07;10.83;;;;;;;7.51;100.00;100933.31;6016910;23;20191;-71
2024/03/05 10:45:27;;;;;;;17.10;10.90;;;;;;;7.59;100.00;100942.34;6016086;23;20177;-71
2024/03/05 10:47:56;;;;;;;18.90;12.17;;;;;;;7.61;100.00;100943.59;6016202;23;20190;-71
2024/03/05 10:50:27;;;;;;;20.60;10.07;;;;;;;7.61;100.00;100943.59;6016136;23;20208;-71
2024/03/05 10:52:54;;;;;;;20.60;10.60;;;;;;;7.66;100.00;100940.88;6016550;23;20192;-71
2024/03/05 10:55:23;;;;;;;15.77;9.67;;;;;;;7.70;100.00;100954.19;6015317;23;20174;-72
2024/03/05 11:00:36;;;;;;;15.27;10.03;;;;;;;7.82;100.00;100952.59;6015897;23;20254;-71
2024/03/05 11:03:06;;;;;;;20.37;10.27;;;;;;;7.92;100.00;100949.72;6016195;23;20188;-71
2024/03/05 11:05:39;;;;;;;19.40;10.50;;;;;;;8.01;100.00;100958.47;6015758;23;20495;-71
2024/03/05 11:08:09;;;;;;;23.67;10.83;;;;;;;8.11;100.00;100962.69;6016043;23;20218;-71
2024/03/05 11:10:38;;;;;;;16.50;10.50;;;;;;;8.22;100.00;100964.81;6015677;23;20236;-71
2024/03/05 11:13:06;;;;;;;14.17;9.23;;;;;;;8.31;100.00;100967.50;6015623;23;20196;-72
2024/03/05 11:15:33;;;;;;;15.70;9.77;;;;;;;8.36;100.00;100967.38;6015102;23;20183;-71
2024/03/05 11:18:01;;;;;;;19.83;12.33;;;;;;;8.47;100.00;100972.09;6016175;23;20182;-72